createdAt,value
2018-09-14T00:02:01.365Z,19.43
2018-09-14T00:04:30.053Z,17.90
2018-09-14T00:06:58.185Z,18.17
2018-09-14T00:09:26.351Z,16.77
2018-09-14T00:11:54.472Z,13.83
2018-09-14T00:14:22.620Z,17.33
2018-09-14T00:16:50.732Z,19.37
2018-09-14T00:19:19.040Z,16.10
2018-09-14T00:21:47.157Z,18.60
2018-09-14T00:24:15.609Z,14.80
2018-09-14T00:26:43.724Z,16.83
2018-09-14T00:29:11.865Z,16.80
2018-09-14T00:31:40.241Z,15.63
2018-09-14T00:34:08.936Z,17.83
2018-09-14T00:36:37.049Z,17.50
2018-09-14T00:39:07.573Z,14.87
2018-09-14T00:41:36.228Z,14.87
2018-09-14T00:44:04.388Z,16.10
2018-09-14T00:46:32.511Z,16.47
2018-09-14T00:49:00.643Z,15.57
2018-09-14T00:51:28.991Z,14.43
2018-09-14T00:53:57.152Z,14.10
2018-09-14T00:56:25.248Z,16.30
2018-09-14T00:58:53.415Z,16.83
2018-09-14T01:01:21.868Z,18.37
2018-09-14T01:03:50.000Z,22.63
2018-09-14T01:06:18.451Z,19.63
2018-09-14T01:08:46.719Z,18.07
2018-09-14T01:11:15.429Z,17.13
2018-09-14T01:13:43.672Z,21.13
2018-09-14T01:16:12.111Z,24.13
2018-09-14T01:18:40.240Z,21.03
2018-09-14T01:21:08.567Z,19.20
2018-09-14T01:23:36.891Z,17.63
2018-09-14T01:26:05.196Z,16.53
2018-09-14T01:28:33.320Z,16.30
2018-09-14T01:31:01.764Z,15.67
2018-09-14T01:33:30.068Z,16.07
2018-09-14T01:36:03.517Z,15.93
2018-09-14T01:38:31.660Z,15.53
2018-09-14T01:40:59.771Z,15.10
2018-09-14T01:43:28.173Z,18.53
2018-09-14T01:45:56.329Z,16.83
2018-09-14T01:48:24.454Z,15.50
2018-09-14T01:50:52.773Z,17.53
2018-09-14T01:53:21.224Z,16.30
2018-09-14T01:55:49.320Z,16.13
2018-09-14T01:58:17.488Z,15.93
2018-09-14T02:00:45.601Z,16.87
2018-09-14T02:03:13.772Z,16.00
2018-09-14T02:05:42.485Z,15.40
2018-09-14T02:08:11.215Z,14.30
2018-09-14T02:10:39.552Z,15.77
2018-09-14T02:13:07.870Z,12.90
2018-09-14T02:15:36.596Z,13.37
2018-09-14T02:18:05.040Z,14.17
2018-09-14T02:20:33.160Z,15.00
2018-09-14T02:23:01.605Z,13.77
2018-09-14T02:25:30.762Z,15.93
2018-09-14T02:27:59.052Z,14.70
2018-09-14T02:30:27.186Z,14.47
2018-09-14T02:32:55.785Z,27.07
2018-09-14T02:35:23.926Z,38.10
2018-09-14T02:37:52.259Z,14.83
2018-09-14T02:40:20.392Z,14.73
2018-09-14T02:42:48.513Z,14.30
2018-09-14T02:45:16.634Z,13.87
2018-09-14T02:47:45.292Z,14.10
2018-09-14T02:50:13.413Z,15.67
2018-09-14T02:52:41.532Z,13.77
2018-09-14T02:55:09.652Z,18.57
2018-09-14T02:57:37.771Z,16.77
2018-09-14T03:00:06.420Z,12.87
2018-09-14T03:02:34.667Z,11.87
2018-09-14T03:05:02.942Z,13.60
2018-09-14T03:07:31.268Z,12.77
2018-09-14T03:09:59.463Z,12.63
2018-09-14T03:12:27.707Z,12.27
2018-09-14T03:14:56.200Z,13.60
2018-09-14T03:17:24.344Z,15.30
2018-09-14T03:19:52.523Z,14.73
2018-09-14T03:22:20.884Z,13.00
2018-09-14T03:24:49.556Z,12.73
2018-09-14T03:27:18.040Z,13.77
2018-09-14T03:29:46.184Z,13.73
2018-09-14T03:32:14.474Z,12.47
2018-09-14T03:34:42.960Z,12.13
2018-09-14T03:37:11.188Z,14.33
2018-09-14T03:39:39.287Z,27.33
2018-09-14T03:42:07.411Z,19.77
2018-09-14T03:44:35.788Z,13.27
2018-09-14T03:47:04.152Z,12.80
2018-09-14T03:49:32.288Z,14.67
2018-09-14T03:52:00.811Z,20.60
2018-09-14T03:54:28.924Z,17.47
2018-09-14T03:56:57.317Z,17.30
2018-09-14T03:59:25.458Z,15.07
2018-09-14T04:01:53.804Z,16.10
2018-09-14T04:04:21.916Z,30.50
2018-09-14T04:06:50.083Z,15.70
2018-09-14T04:09:18.224Z,37.60
2018-09-14T04:11:46.568Z,15.57
2018-09-14T04:14:14.688Z,47.17
2018-09-14T04:16:42.807Z,24.53
2018-09-14T04:19:11.245Z,27.33
2018-09-14T04:21:39.609Z,25.93
2018-09-14T04:24:08.084Z,16.27
2018-09-14T04:26:36.539Z,13.07
2018-09-14T04:29:05.001Z,13.80
2018-09-14T04:31:33.300Z,13.03
2018-09-14T04:34:01.904Z,14.60
2018-09-14T04:36:30.356Z,13.97
2018-09-14T04:38:58.473Z,15.13
2018-09-14T04:41:26.916Z,13.20
2018-09-14T04:43:55.704Z,15.30
2018-09-14T04:46:24.159Z,14.57
2018-09-14T04:48:52.283Z,12.03
2018-09-14T04:51:20.896Z,18.73
2018-09-14T04:53:49.525Z,12.30
2018-09-14T04:56:17.648Z,13.63
2018-09-14T04:58:45.757Z,12.23
2018-09-14T05:01:14.206Z,12.70
2018-09-14T05:03:42.689Z,11.00
2018-09-14T05:06:10.787Z,26.83
2018-09-14T05:08:40.564Z,13.13
2018-09-14T05:11:08.848Z,21.63
2018-09-14T05:13:37.329Z,17.93
2018-09-14T05:16:05.620Z,16.50
2018-09-14T05:18:33.783Z,46.23
2018-09-14T05:21:02.452Z,22.83
2018-09-14T05:23:30.562Z,26.00
2018-09-14T05:25:58.873Z,42.70
2018-09-14T05:28:27.115Z,50.73
2018-09-14T05:30:55.260Z,20.33
2018-09-14T05:33:23.411Z,27.07
2018-09-14T05:35:52.052Z,20.23
2018-09-14T05:38:20.210Z,16.90
2018-09-14T05:40:49.298Z,22.73
2018-09-14T05:43:17.416Z,16.10
2018-09-14T05:45:45.596Z,12.67
2018-09-14T05:48:13.919Z,12.10
2018-09-14T05:50:42.036Z,13.00
2018-09-14T05:53:10.508Z,11.73
2018-09-14T05:55:38.950Z,11.77
2018-09-14T05:58:07.653Z,12.20
2018-09-14T06:00:36.100Z,11.17
2018-09-14T06:03:04.552Z,11.53
2018-09-14T06:05:32.664Z,12.13
2018-09-14T06:08:00.795Z,10.93
2018-09-14T06:10:29.281Z,11.50
2018-09-14T06:12:57.924Z,10.97
2018-09-14T06:15:26.364Z,11.77
2018-09-14T06:17:54.502Z,11.90
2018-09-14T06:20:22.608Z,12.53
2018-09-14T06:22:51.116Z,12.73
2018-09-14T06:25:19.729Z,12.37
2018-09-14T06:27:48.099Z,11.47
2018-09-14T06:30:16.479Z,12.87
2018-09-14T06:32:45.089Z,12.23
2018-09-14T06:35:13.740Z,12.93
2018-09-14T06:37:42.217Z,14.47
2018-09-14T06:40:10.669Z,13.27
2018-09-14T06:42:38.800Z,12.77
2018-09-14T06:45:07.282Z,14.07
2018-09-14T06:47:35.625Z,15.00
2018-09-14T06:50:04.008Z,16.83
2018-09-14T06:52:32.205Z,17.43
2018-09-14T06:55:00.351Z,17.63
2018-09-14T06:57:28.486Z,22.50
2018-09-14T06:59:57.196Z,18.47
2018-09-14T07:02:25.586Z,19.50
2018-09-14T07:04:54.240Z,17.80
2018-09-14T07:07:22.585Z,17.63
2018-09-14T07:09:50.773Z,19.20
2018-09-14T07:12:18.910Z,18.33
2018-09-14T07:14:47.045Z,19.43
2018-09-14T07:17:15.752Z,19.63
2018-09-14T07:19:44.256Z,18.73
2018-09-14T07:22:12.773Z,17.37
2018-09-14T07:24:41.158Z,18.43
2018-09-14T07:27:10.010Z,17.27
2018-09-14T07:29:38.186Z,17.57
2018-09-14T07:32:06.537Z,20.50
2018-09-14T07:34:34.909Z,18.33
2018-09-14T07:37:03.405Z,19.33
2018-09-14T07:39:31.543Z,18.53
2018-09-14T07:41:59.984Z,21.07
2018-09-14T07:44:28.109Z,19.80
2018-09-14T07:46:56.593Z,23.50
2018-09-14T07:49:24.751Z,20.97
2018-09-14T07:51:53.064Z,22.00
2018-09-14T07:54:21.184Z,20.83
2018-09-14T07:56:49.347Z,21.20
2018-09-14T07:59:18.005Z,22.27
2018-09-14T08:01:46.116Z,19.20
2018-09-14T08:04:14.274Z,20.70
2018-09-14T08:06:42.396Z,21.13
2018-09-14T08:09:12.274Z,22.27
2018-09-14T08:11:41.165Z,22.70
2018-09-14T08:14:10.109Z,22.80
2018-09-14T08:16:38.541Z,25.43
2018-09-14T08:19:07.028Z,25.07
2018-09-14T08:21:35.467Z,19.00
2018-09-14T08:24:03.744Z,18.40
2018-09-14T08:26:31.872Z,18.67
2018-09-14T08:29:00.324Z,18.00
2018-09-14T08:31:28.691Z,21.87
2018-09-14T08:33:57.363Z,19.80
2018-09-14T08:36:25.480Z,19.10
2018-09-14T08:38:53.935Z,21.60
2018-09-14T08:41:22.248Z,22.20
2018-09-14T08:43:50.704Z,20.43
2018-09-14T08:46:18.820Z,19.50
2018-09-14T08:48:47.301Z,19.90
2018-09-14T08:51:15.956Z,22.70
2018-09-14T08:53:44.458Z,20.13
2018-09-14T08:56:12.623Z,20.63
2018-09-14T08:58:41.266Z,21.93
2018-09-14T09:01:09.972Z,20.93
2018-09-14T09:03:38.084Z,24.13
2018-09-14T09:06:06.746Z,23.43
2018-09-14T09:08:35.302Z,23.90
2018-09-14T09:11:03.972Z,26.20
2018-09-14T09:13:32.080Z,26.10
2018-09-14T09:16:00.204Z,25.07
2018-09-14T09:18:28.768Z,24.97
2018-09-14T09:20:57.226Z,25.70
2018-09-14T09:23:25.359Z,26.23
2018-09-14T09:25:53.672Z,25.63
2018-09-14T09:28:21.827Z,27.23
2018-09-14T09:30:50.485Z,29.70
2018-09-14T09:33:18.844Z,26.83
2018-09-14T09:35:47.004Z,22.33
2018-09-14T09:38:15.108Z,20.43
2018-09-14T09:40:43.612Z,19.73
2018-09-14T09:43:12.336Z,18.70
2018-09-14T09:45:40.636Z,17.10
2018-09-14T09:48:10.288Z,16.37
2018-09-14T09:50:39.430Z,17.57
2018-09-14T09:53:08.483Z,15.57
2018-09-14T09:55:37.248Z,18.13
2018-09-14T09:58:05.481Z,13.77
2018-09-14T10:00:38.919Z,13.13
2018-09-14T10:03:12.428Z,13.53
2018-09-14T10:05:46.296Z,12.10
2018-09-14T10:08:14.737Z,11.60
2018-09-14T10:10:43.208Z,12.43
2018-09-14T10:13:11.304Z,7.03
2018-09-14T10:15:39.765Z,7.63
2018-09-14T10:18:08.084Z,12.87
2018-09-14T10:20:36.209Z,10.53
2018-09-14T10:23:04.872Z,8.93
2018-09-14T10:25:33.153Z,5.73
2018-09-14T10:28:01.588Z,8.90
2018-09-14T10:30:29.701Z,9.10
2018-09-14T10:32:57.812Z,11.30
2018-09-14T10:35:26.268Z,13.20
2018-09-14T10:37:54.724Z,12.27
2018-09-14T10:40:23.410Z,12.33
2018-09-14T10:42:52.335Z,11.63
2018-09-14T10:45:21.125Z,11.47
2018-09-14T10:47:49.364Z,12.20
2018-09-14T10:50:17.476Z,11.27
2018-09-14T10:52:46.139Z,12.50
2018-09-14T10:55:14.489Z,12.07
2018-09-14T10:57:42.765Z,10.70
2018-09-14T11:00:11.448Z,11.40
2018-09-14T11:02:39.573Z,13.20
2018-09-14T11:05:08.411Z,12.93
2018-09-14T11:07:36.911Z,11.70
2018-09-14T11:10:05.753Z,12.03
2018-09-14T11:12:34.803Z,10.13
2018-09-14T11:15:04.259Z,9.33
2018-09-14T11:17:32.728Z,11.70
2018-09-14T11:20:00.837Z,11.47
2018-09-14T11:22:28.993Z,13.47
2018-09-14T11:24:57.161Z,12.30
2018-09-14T11:27:26.008Z,12.40
2018-09-14T11:29:54.432Z,12.87
2018-09-14T11:32:22.581Z,10.83
2018-09-14T11:34:50.863Z,10.30
2018-09-14T11:37:19.005Z,10.60
2018-09-14T11:39:47.300Z,14.13
2018-09-14T11:42:15.761Z,11.87
2018-09-14T11:44:44.203Z,12.50
2018-09-14T11:47:12.657Z,12.83
2018-09-14T11:49:40.964Z,16.67
2018-09-14T11:52:09.104Z,14.80
2018-09-14T11:54:37.634Z,13.43
2018-09-14T11:57:06.396Z,13.63
2018-09-14T11:59:35.084Z,13.47
2018-09-14T12:02:03.244Z,12.00
2018-09-14T12:04:31.377Z,10.80
2018-09-14T12:07:00.036Z,9.90
2018-09-14T12:09:28.147Z,10.73
2018-09-14T12:11:56.909Z,12.53
2018-09-14T12:14:25.368Z,11.60
2018-09-14T12:16:53.863Z,15.17
2018-09-14T12:19:21.972Z,18.40
2018-09-14T12:21:50.436Z,16.20
2018-09-14T12:24:18.880Z,14.53
2018-09-14T12:26:47.007Z,13.20
2018-09-14T12:29:15.316Z,14.37
2018-09-14T12:31:43.464Z,13.33
2018-09-14T12:34:11.580Z,14.87
2018-09-14T12:36:40.224Z,15.83
2018-09-14T12:39:09.495Z,12.17
2018-09-14T12:41:37.841Z,15.40
2018-09-14T12:44:06.220Z,16.40
2018-09-14T12:46:34.352Z,14.87
2018-09-14T12:49:03.635Z,15.63
2018-09-14T12:51:32.090Z,15.90
2018-09-14T12:54:00.214Z,16.83
2018-09-14T12:56:28.856Z,15.37
2018-09-14T12:58:56.989Z,15.57
2018-09-14T13:01:25.104Z,13.07
2018-09-14T13:03:53.231Z,17.63
2018-09-14T13:06:21.564Z,13.57
2018-09-14T13:08:50.216Z,11.20
2018-09-14T13:11:18.963Z,12.07
2018-09-14T13:13:47.417Z,12.03
2018-09-14T13:16:15.532Z,10.00
2018-09-14T13:18:44.840Z,11.73
2018-09-14T13:21:13.841Z,12.00
2018-09-14T13:23:41.956Z,10.80
2018-09-14T13:26:10.078Z,10.43
2018-09-14T13:28:38.222Z,9.33
2018-09-14T13:31:07.133Z,9.70
2018-09-14T13:33:35.240Z,9.27
2018-09-14T13:36:04.053Z,10.07
2018-09-14T13:38:32.199Z,9.77
2018-09-14T13:41:00.317Z,9.27
2018-09-14T13:43:28.964Z,8.03
2018-09-14T13:45:57.081Z,10.00
2018-09-14T13:48:25.540Z,7.27
2018-09-14T13:50:53.644Z,7.93
2018-09-14T13:53:21.756Z,8.37
2018-09-14T13:55:49.898Z,6.43
2018-09-14T13:58:18.204Z,7.77
2018-09-14T14:00:46.836Z,7.93
2018-09-14T14:03:14.976Z,8.00
2018-09-14T14:05:43.419Z,7.73
2018-09-14T14:08:11.782Z,7.43
2018-09-14T14:10:39.920Z,7.63
2018-09-14T14:13:08.088Z,7.07
2018-09-14T14:15:36.257Z,8.30
2018-09-14T14:18:04.364Z,7.10
2018-09-14T14:20:32.985Z,7.13
2018-09-14T14:23:01.258Z,7.90
2018-09-14T14:25:29.904Z,8.57
2018-09-14T14:27:58.368Z,10.07
2018-09-14T14:30:26.537Z,9.90
2018-09-14T14:32:54.632Z,8.67
2018-09-14T14:35:27.945Z,10.00
2018-09-14T14:37:56.052Z,10.70
2018-09-14T14:40:24.179Z,9.87
2018-09-14T14:42:52.313Z,9.50
2018-09-14T14:45:20.655Z,9.20
2018-09-14T14:47:48.940Z,10.03
2018-09-14T14:50:17.118Z,9.50
2018-09-14T14:52:45.227Z,10.87
2018-09-14T14:55:14.096Z,11.60
2018-09-14T14:57:42.328Z,11.37
2018-09-14T15:00:10.956Z,12.03
2018-09-14T15:02:40.552Z,11.20
2018-09-14T15:05:10.585Z,11.87
2018-09-14T15:07:38.768Z,12.93
2018-09-14T15:10:07.287Z,12.33
2018-09-14T15:12:35.749Z,10.43
2018-09-14T15:15:03.884Z,10.20
2018-09-14T15:17:32.019Z,10.43
2018-09-14T15:20:00.711Z,9.63
2018-09-14T15:22:29.496Z,10.73
2018-09-14T15:24:58.071Z,10.13
2018-09-14T15:27:26.197Z,10.80
2018-09-14T15:29:54.344Z,10.93
2018-09-14T15:32:22.490Z,11.20
2018-09-14T15:37:48.308Z,11.33
2018-09-14T15:40:16.784Z,11.40
2018-09-14T15:42:45.264Z,12.10
2018-09-14T15:45:13.546Z,12.10
2018-09-14T15:47:41.741Z,12.97
2018-09-14T15:50:10.409Z,12.50
2018-09-14T15:52:38.864Z,12.03
2018-09-14T15:55:07.004Z,12.10
2018-09-14T15:57:35.150Z,12.77
2018-09-14T16:00:03.772Z,11.40
2018-09-14T16:02:31.897Z,10.47
2018-09-14T16:05:00.339Z,13.30
2018-09-14T16:07:44.669Z,11.73
2018-09-14T16:10:13.671Z,11.83
2018-09-14T16:12:41.775Z,14.53
2018-09-14T16:15:10.220Z,16.73
2018-09-14T16:17:38.856Z,15.97
2018-09-14T16:20:07.085Z,16.13
2018-09-14T16:22:40.477Z,15.73
2018-09-14T16:25:08.664Z,15.10
2018-09-14T16:27:36.792Z,16.17
2018-09-14T16:30:05.355Z,15.23
2018-09-14T16:32:33.488Z,16.07
2018-09-14T16:35:01.665Z,13.30
2018-09-14T16:37:30.117Z,14.20
2018-09-14T16:39:58.253Z,14.20
2018-09-14T16:42:26.425Z,13.40
2018-09-14T16:44:54.546Z,14.80
2018-09-14T16:47:23.022Z,14.57
2018-09-14T16:49:51.681Z,14.70
2018-09-14T16:52:20.124Z,15.10
2018-09-14T16:54:48.576Z,16.50
2018-09-14T16:57:17.255Z,17.10
2018-09-14T16:59:45.356Z,19.50
2018-09-14T17:02:13.476Z,20.50
2018-09-14T17:04:41.585Z,17.17
2018-09-14T17:07:10.040Z,17.43
2018-09-14T17:09:38.180Z,16.47
2018-09-14T17:12:06.944Z,17.30
2018-09-14T17:14:35.384Z,17.23
2018-09-14T17:17:03.900Z,16.87
2018-09-14T17:19:32.275Z,19.10
2018-09-14T17:22:00.589Z,18.00
2018-09-14T17:24:28.693Z,18.30
2018-09-14T17:26:56.796Z,16.60
2018-09-14T17:29:24.898Z,17.83
2018-09-14T17:31:53.023Z,16.40
2018-09-14T17:34:21.320Z,18.17
2018-09-14T17:36:49.919Z,18.00
2018-09-14T17:39:18.406Z,18.17
2018-09-14T17:41:47.028Z,18.53
2018-09-14T17:44:15.140Z,17.43
2018-09-14T17:46:43.248Z,18.80
2018-09-14T17:49:11.680Z,19.40
2018-09-14T17:51:40.348Z,18.67
2018-09-14T17:54:08.451Z,17.70
2018-09-14T17:56:36.613Z,18.80
2018-09-14T17:59:04.977Z,18.00
2018-09-14T18:01:33.608Z,18.33
2018-09-14T18:04:02.059Z,19.40
2018-09-14T18:06:30.941Z,18.37
2018-09-14T18:09:00.372Z,19.20
2018-09-14T18:11:29.044Z,19.53
2018-09-14T18:13:57.153Z,19.07
2018-09-14T18:16:25.538Z,19.33
2018-09-14T18:18:53.848Z,20.13
2018-09-14T18:21:22.312Z,20.30
2018-09-14T18:23:50.420Z,21.23
2018-09-14T18:26:18.852Z,20.47
2018-09-14T18:28:46.977Z,20.17
2018-09-14T18:31:15.429Z,19.73
2018-09-14T18:33:43.548Z,20.83
2018-09-14T18:36:12.242Z,21.17
2018-09-14T18:38:40.836Z,19.70
2018-09-14T18:41:09.271Z,18.47
2018-09-14T18:43:37.391Z,21.77
2018-09-14T18:46:05.837Z,20.00
2018-09-14T18:48:34.297Z,20.90
2018-09-14T18:51:02.731Z,20.20
2018-09-14T18:53:31.400Z,19.73
2018-09-14T18:56:00.043Z,19.97
2018-09-14T18:58:28.181Z,20.80
2018-09-14T19:00:56.809Z,20.43
2018-09-14T19:03:24.900Z,19.83
2018-09-14T19:05:52.996Z,20.37
2018-09-14T19:08:21.432Z,19.97
2018-09-14T19:10:50.014Z,20.37
2018-09-14T19:13:18.530Z,23.00
2018-09-14T19:15:47.132Z,24.30
2018-09-14T19:18:15.588Z,23.67
2018-09-14T19:20:44.228Z,24.80
2018-09-14T19:23:12.668Z,23.70
2018-09-14T19:25:40.808Z,24.83
2018-09-14T19:28:09.403Z,23.50
2018-09-14T19:30:37.519Z,23.67
2018-09-14T19:33:05.970Z,21.90
2018-09-14T19:35:34.605Z,21.87
2018-09-14T19:38:03.972Z,22.13
2018-09-14T19:40:32.125Z,20.17
2018-09-14T19:43:00.756Z,20.82
2018-09-14T19:45:29.198Z,18.53
2018-09-14T19:47:57.824Z,17.97
2018-09-14T19:50:26.499Z,17.03
2018-09-14T19:52:56.741Z,17.07
2018-09-14T19:55:25.444Z,17.07
2018-09-14T19:57:53.553Z,17.40
2018-09-14T20:00:21.992Z,18.40
2018-09-14T20:02:50.163Z,19.40
2018-09-14T20:05:18.605Z,18.40
2018-09-14T20:07:47.209Z,19.73
2018-09-14T20:10:15.742Z,19.97
2018-09-14T20:12:43.840Z,17.33
2018-09-14T20:15:12.239Z,17.32
2018-09-14T20:17:40.721Z,16.60
2018-09-14T20:20:09.349Z,17.65
2018-09-14T20:22:37.779Z,17.43
2018-09-14T20:25:06.785Z,16.73
2018-09-14T20:27:35.528Z,17.92
2018-09-14T20:30:04.853Z,17.95
2018-09-14T20:32:33.200Z,16.10
2018-09-14T20:35:01.444Z,17.23
2018-09-14T20:37:29.567Z,16.60
2018-09-14T20:39:57.976Z,15.33
2018-09-14T20:42:26.640Z,19.43
2018-09-14T20:44:56.700Z,16.00
2018-09-14T20:47:25.176Z,15.63
2018-09-14T20:49:53.676Z,20.40
2018-09-14T20:52:22.129Z,16.23
2018-09-14T20:54:50.660Z,15.93
2018-09-14T20:57:19.088Z,15.97
2018-09-14T20:59:47.248Z,18.83
2018-09-14T21:02:15.703Z,15.10
2018-09-14T21:04:43.811Z,15.60
2018-09-14T21:07:12.457Z,15.93
2018-09-14T21:09:40.899Z,17.03
2018-09-14T21:12:09.356Z,17.45
2018-09-14T21:14:37.804Z,15.80
2018-09-14T21:17:06.567Z,15.70
2018-09-14T21:19:34.671Z,17.13
2018-09-14T21:22:03.784Z,15.13
2018-09-14T21:24:31.879Z,15.07
2018-09-14T21:27:00.283Z,14.57
2018-09-14T21:29:28.724Z,15.20
2018-09-14T21:31:56.839Z,14.50
2018-09-14T21:34:25.860Z,14.57
2018-09-14T21:36:54.320Z,15.50
2018-09-14T21:39:22.746Z,15.20
2018-09-14T21:41:50.871Z,13.97
2018-09-14T21:44:19.595Z,13.72
2018-09-14T21:46:47.726Z,13.40
2018-09-14T21:49:15.823Z,12.80
2018-09-14T21:51:44.415Z,10.77
2018-09-14T21:54:13.183Z,12.37
2018-09-14T21:56:41.727Z,13.20
2018-09-14T21:59:10.168Z,14.63
2018-09-14T22:01:38.448Z,14.73
2018-09-14T22:04:06.816Z,12.47
2018-09-14T22:06:35.292Z,12.40
2018-09-14T22:09:04.861Z,14.33
2018-09-14T22:11:33.067Z,13.70
2018-09-14T22:14:01.456Z,13.03
2018-09-14T22:16:29.573Z,14.03
2018-09-14T22:18:58.315Z,13.73
2018-09-14T22:21:26.957Z,12.90
2018-09-14T22:23:56.657Z,17.20
2018-09-14T22:26:25.088Z,12.17
2018-09-14T22:28:53.476Z,13.00
2018-09-14T22:31:21.900Z,10.83
2018-09-14T22:33:50.574Z,12.17
2018-09-14T22:36:19.036Z,12.17
2018-09-14T22:38:47.156Z,12.93
2018-09-14T22:41:15.928Z,11.03
2018-09-14T22:43:44.274Z,14.20
2018-09-14T22:46:13.148Z,14.07
2018-09-14T22:48:41.532Z,13.40
2018-09-14T22:51:09.945Z,13.20
2018-09-14T22:53:38.296Z,15.63
2018-09-14T22:56:07.047Z,13.53
2018-09-14T22:58:35.508Z,14.17
2018-09-14T23:01:09.344Z,15.40
2018-09-14T23:03:38.068Z,16.03
2018-09-14T23:06:06.283Z,13.60
2018-09-14T23:08:34.992Z,15.53
2018-09-14T23:11:03.488Z,15.27
2018-09-14T23:13:31.795Z,14.47
2018-09-14T23:16:01.172Z,12.93
2018-09-14T23:18:30.463Z,12.30
2018-09-14T23:21:00.210Z,12.23
2018-09-14T23:23:28.900Z,14.07
2018-09-14T23:25:59.005Z,11.27
2018-09-14T23:28:27.496Z,13.30
2018-09-14T23:30:57.051Z,12.15
2018-09-14T23:33:25.617Z,10.75
2018-09-14T23:35:53.913Z,12.43
2018-09-14T23:38:22.008Z,10.50
2018-09-14T23:40:50.448Z,11.20
2018-09-14T23:43:19.001Z,11.50
2018-09-14T23:45:47.991Z,10.27
2018-09-14T23:48:16.416Z,9.60
2018-09-14T23:50:44.787Z,13.00
2018-09-14T23:53:13.010Z,10.83
2018-09-14T23:55:41.964Z,9.08
2018-09-14T23:58:10.324Z,8.50
